Angleton, Texas
Current Conditions -  °F | °C
As of 11:53 PM on Tuesday 25 Nov 2014 (Local Time) from KLBX Reporting Station
Clear Clear  
Wind Chill: 46°   Ceiling: Unl
Heat Index: 46°   Visibility: 10mi
Dew Point: 42°   Wind: 3mph
Humidity: 86%   Direction: 170°S
Pressure: 30.25"   Gusts: NA
Location:  29.16°N, 95.43°W
Report Text: KLBX 260553Z AUTO 17003KT 10SM CLR 08/06 A3025 RMK AO2 SLP242 T00780056 10100 20061 401830050 58003
Loading
Personal Weather Stations






























Interactive Weather Map New forecast layout! Learn more

10-Day Weather Forecast

Advertisements
Track Severe Weather on mobile